sensor_id;sensor_type;location;lat;lon;timestamp;temperature;humidity
1526;DHT22;756;49.982;8.240;2022-09-09T00:02:01;17.70;83.60
1526;DHT22;756;49.982;8.240;2022-09-09T00:15:21;17.30;84.50
1526;DHT22;756;49.982;8.240;2022-09-09T00:20:32;17.60;84.10
1526;DHT22;756;49.982;8.240;2022-09-09T00:25:40;17.60;83.80
1526;DHT22;756;49.982;8.240;2022-09-09T00:28:16;17.70;83.60
1526;DHT22;756;49.982;8.240;2022-09-09T00:30:45;17.70;83.10
1526;DHT22;756;49.982;8.240;2022-09-09T00:33:17;17.70;83.00
1526;DHT22;756;49.982;8.240;2022-09-09T00:35:49;17.80;82.80
1526;DHT22;756;49.982;8.240;2022-09-09T00:38:21;17.80;82.70
1526;DHT22;756;49.982;8.240;2022-09-09T00:41:00;17.80;82.80
1526;DHT22;756;49.982;8.240;2022-09-09T00:43:32;17.80;82.90
1526;DHT22;756;49.982;8.240;2022-09-09T00:47:07;17.80;82.80
1526;DHT22;756;49.982;8.240;2022-09-09T00:49:09;17.80;82.90
1526;DHT22;756;49.982;8.240;2022-09-09T00:52:04;17.70;83.10
1526;DHT22;756;49.982;8.240;2022-09-09T00:54:40;17.70;83.10
1526;DHT22;756;49.982;8.240;2022-09-09T00:57:26;17.50;83.70
1526;DHT22;756;49.982;8.240;2022-09-09T01:03:15;17.20;85.40
1526;DHT22;756;49.982;8.240;2022-09-09T01:08:58;17.30;85.30
1526;DHT22;756;49.982;8.240;2022-09-09T01:11:35;17.20;85.40
1526;DHT22;756;49.982;8.240;2022-09-09T01:16:46;17.20;85.40
1526;DHT22;756;49.982;8.240;2022-09-09T01:19:22;17.20;85.20
1526;DHT22;756;49.982;8.240;2022-09-09T01:21:59;17.30;84.70
1526;DHT22;756;49.982;8.240;2022-09-09T01:24:40;17.30;84.40
1526;DHT22;756;49.982;8.240;2022-09-09T01:27:09;17.30;84.40
1526;DHT22;756;49.982;8.240;2022-09-09T01:29:36;17.30;84.60
1526;DHT22;756;49.982;8.240;2022-09-09T01:37:48;17.30;84.00
1526;DHT22;756;49.982;8.240;2022-09-09T01:40:14;17.30;83.90
1526;DHT22;756;49.982;8.240;2022-09-09T01:42:41;17.30;83.80
1526;DHT22;756;49.982;8.240;2022-09-09T01:45:08;17.20;84.20
1526;DHT22;756;49.982;8.240;2022-09-09T01:47:35;17.10;84.20
1526;DHT22;756;49.982;8.240;2022-09-09T01:50:03;17.00;84.60
1526;DHT22;756;49.982;8.240;2022-09-09T01:52:31;16.90;84.30
1526;DHT22;756;49.982;8.240;2022-09-09T01:55:00;16.90;84.40
1526;DHT22;756;49.982;8.240;2022-09-09T01:57:44;17.00;84.40
1526;DHT22;756;49.982;8.240;2022-09-09T02:00:14;17.10;83.80
1526;DHT22;756;49.982;8.240;2022-09-09T02:02:57;17.10;83.60
1526;DHT22;756;49.982;8.240;2022-09-09T02:08:50;17.00;83.60
1526;DHT22;756;49.982;8.240;2022-09-09T02:11:22;17.00;83.60
1526;DHT22;756;49.982;8.240;2022-09-09T02:13:54;17.00;83.20
1526;DHT22;756;49.982;8.240;2022-09-09T02:16:28;16.90;83.50
1526;DHT22;756;49.982;8.240;2022-09-09T02:21:29;17.00;83.70
1526;DHT22;756;49.982;8.240;2022-09-09T02:23:58;17.10;83.50
1526;DHT22;756;49.982;8.240;2022-09-09T02:26:26;17.10;83.50
1526;DHT22;756;49.982;8.240;2022-09-09T02:28:55;17.10;83.40
1526;DHT22;756;49.982;8.240;2022-09-09T02:31:25;17.20;83.30
1526;DHT22;756;49.982;8.240;2022-09-09T02:33:55;17.10;83.20
1526;DHT22;756;49.982;8.240;2022-09-09T02:36:24;17.00;83.70
1526;DHT22;756;49.982;8.240;2022-09-09T02:38:53;16.90;84.30
1526;DHT22;756;49.982;8.240;2022-09-09T02:41:24;16.90;84.10
1526;DHT22;756;49.982;8.240;2022-09-09T02:43:52;16.70;84.90
1526;DHT22;756;49.982;8.240;2022-09-09T02:49:47;16.50;85.40
1526;DHT22;756;49.982;8.240;2022-09-09T02:52:27;16.60;85.00
1526;DHT22;756;49.982;8.240;2022-09-09T02:54:59;16.70;84.40
1526;DHT22;756;49.982;8.240;2022-09-09T02:57:31;16.70;84.10
1526;DHT22;756;49.982;8.240;2022-09-09T02:59:58;16.80;83.90
1526;DHT22;756;49.982;8.240;2022-09-09T03:02:25;16.60;84.80
1526;DHT22;756;49.982;8.240;2022-09-09T03:04:52;16.50;84.90
1526;DHT22;756;49.982;8.240;2022-09-09T03:07:19;16.50;85.60
1526;DHT22;756;49.982;8.240;2022-09-09T03:09:45;16.60;84.90
1526;DHT22;756;49.982;8.240;2022-09-09T03:12:12;16.60;84.60
1526;DHT22;756;49.982;8.240;2022-09-09T03:14:39;16.70;84.20
1526;DHT22;756;49.982;8.240;2022-09-09T03:17:06;16.60;84.10
1526;DHT22;756;49.982;8.240;2022-09-09T03:19:33;16.50;84.90
1526;DHT22;756;49.982;8.240;2022-09-09T03:22:01;16.60;84.70
1526;DHT22;756;49.982;8.240;2022-09-09T03:24:28;16.60;84.70
1526;DHT22;756;49.982;8.240;2022-09-09T03:26:54;16.60;84.70
1526;DHT22;756;49.982;8.240;2022-09-09T03:29:22;16.60;84.50
1526;DHT22;756;49.982;8.240;2022-09-09T03:31:48;16.60;84.70
1526;DHT22;756;49.982;8.240;2022-09-09T03:34:17;16.60;84.60
1526;DHT22;756;49.982;8.240;2022-09-09T03:36:43;16.60;84.50
1526;DHT22;756;49.982;8.240;2022-09-09T03:39:10;16.60;84.60
1526;DHT22;756;49.982;8.240;2022-09-09T03:41:37;16.60;84.50
1526;DHT22;756;49.982;8.240;2022-09-09T03:44:03;16.60;84.20
1526;DHT22;756;49.982;8.240;2022-09-09T03:46:30;16.60;84.50
1526;DHT22;756;49.982;8.240;2022-09-09T03:48:57;16.60;84.40
1526;DHT22;756;49.982;8.240;2022-09-09T03:51:24;16.60;84.30
1526;DHT22;756;49.982;8.240;2022-09-09T03:53:51;16.60;84.20
1526;DHT22;756;49.982;8.240;2022-09-09T03:56:17;16.60;84.40
1526;DHT22;756;49.982;8.240;2022-09-09T03:58:44;16.60;84.00
1526;DHT22;756;49.982;8.240;2022-09-09T04:01:12;16.50;84.20
1526;DHT22;756;49.982;8.240;2022-09-09T04:03:40;16.40;84.80
1526;DHT22;756;49.982;8.240;2022-09-09T04:06:09;16.40;84.70
1526;DHT22;756;49.982;8.240;2022-09-09T04:08:36;16.30;85.50
1526;DHT22;756;49.982;8.240;2022-09-09T04:11:04;16.30;85.80
1526;DHT22;756;49.982;8.240;2022-09-09T04:13:34;16.40;85.00
1526;DHT22;756;49.982;8.240;2022-09-09T04:16:02;16.40;84.90
1526;DHT22;756;49.982;8.240;2022-09-09T04:18:30;16.30;85.60
1526;DHT22;756;49.982;8.240;2022-09-09T04:20:57;16.30;85.90
1526;DHT22;756;49.982;8.240;2022-09-09T04:23:27;16.40;85.20
1526;DHT22;756;49.982;8.240;2022-09-09T04:25:57;16.50;84.90
1526;DHT22;756;49.982;8.240;2022-09-09T04:28:25;16.40;84.80
1526;DHT22;756;49.982;8.240;2022-09-09T04:30:52;16.40;85.10
1526;DHT22;756;49.982;8.240;2022-09-09T04:33:19;16.30;85.40
1526;DHT22;756;49.982;8.240;2022-09-09T04:35:48;16.40;85.40
1526;DHT22;756;49.982;8.240;2022-09-09T04:38:16;16.40;85.00
1526;DHT22;756;49.982;8.240;2022-09-09T04:40:46;16.40;84.90
1526;DHT22;756;49.982;8.240;2022-09-09T04:43:20;16.50;84.80
1526;DHT22;756;49.982;8.240;2022-09-09T04:45:51;16.50;84.70
1526;DHT22;756;49.982;8.240;2022-09-09T04:48:18;16.50;84.70
1526;DHT22;756;49.982;8.240;2022-09-09T04:51:03;16.50;84.60
1526;DHT22;756;49.982;8.240;2022-09-09T04:53:31;16.50;84.70
1526;DHT22;756;49.982;8.240;2022-09-09T04:56:07;16.40;84.80
1526;DHT22;756;49.982;8.240;2022-09-09T04:58:34;16.40;85.10
1526;DHT22;756;49.982;8.240;2022-09-09T05:01:05;16.50;84.60
1526;DHT22;756;49.982;8.240;2022-09-09T05:03:32;16.40;84.90
1526;DHT22;756;49.982;8.240;2022-09-09T05:06:06;16.50;84.90
1526;DHT22;756;49.982;8.240;2022-09-09T05:08:33;16.50;84.90
1526;DHT22;756;49.982;8.240;2022-09-09T05:11:00;16.40;85.00
1526;DHT22;756;49.982;8.240;2022-09-09T05:13:27;16.50;85.00
1526;DHT22;756;49.982;8.240;2022-09-09T05:15:54;16.50;85.10
1526;DHT22;756;49.982;8.240;2022-09-09T05:18:21;16.50;85.00
1526;DHT22;756;49.982;8.240;2022-09-09T05:20:49;16.50;85.10
1526;DHT22;756;49.982;8.240;2022-09-09T05:23:17;16.50;85.30
1526;DHT22;756;49.982;8.240;2022-09-09T05:25:43;16.50;85.30
1526;DHT22;756;49.982;8.240;2022-09-09T05:28:12;16.50;85.10
1526;DHT22;756;49.982;8.240;2022-09-09T05:30:38;16.50;85.30
1526;DHT22;756;49.982;8.240;2022-09-09T05:33:05;16.40;85.10
1526;DHT22;756;49.982;8.240;2022-09-09T05:35:33;16.20;86.00
1526;DHT22;756;49.982;8.240;2022-09-09T05:38:00;16.10;86.60
1526;DHT22;756;49.982;8.240;2022-09-09T05:40:26;16.00;87.00
1526;DHT22;756;49.982;8.240;2022-09-09T05:42:53;16.10;87.30
1526;DHT22;756;49.982;8.240;2022-09-09T05:45:20;16.10;87.60
1526;DHT22;756;49.982;8.240;2022-09-09T05:47:51;16.20;87.50
1526;DHT22;756;49.982;8.240;2022-09-09T05:50:19;16.40;86.70
1526;DHT22;756;49.982;8.240;2022-09-09T05:52:46;16.40;86.60
1526;DHT22;756;49.982;8.240;2022-09-09T05:55:14;16.50;86.60
1526;DHT22;756;49.982;8.240;2022-09-09T05:57:41;16.60;86.50
1526;DHT22;756;49.982;8.240;2022-09-09T06:00:09;16.60;86.50
1526;DHT22;756;49.982;8.240;2022-09-09T06:02:36;16.60;86.60
1526;DHT22;756;49.982;8.240;2022-09-09T06:05:04;16.70;86.50
1526;DHT22;756;49.982;8.240;2022-09-09T06:07:31;16.70;86.70
1526;DHT22;756;49.982;8.240;2022-09-09T06:09:58;16.70;86.60
1526;DHT22;756;49.982;8.240;2022-09-09T06:12:25;16.80;86.80
1526;DHT22;756;49.982;8.240;2022-09-09T06:14:52;16.80;86.60
1526;DHT22;756;49.982;8.240;2022-09-09T06:17:19;16.90;86.20
1526;DHT22;756;49.982;8.240;2022-09-09T06:19:45;17.00;86.00
1526;DHT22;756;49.982;8.240;2022-09-09T06:22:12;17.00;86.20
1526;DHT22;756;49.982;8.240;2022-09-09T06:24:39;17.10;85.90
1526;DHT22;756;49.982;8.240;2022-09-09T06:27:05;17.10;85.50
1526;DHT22;756;49.982;8.240;2022-09-09T06:29:32;17.20;85.30
1526;DHT22;756;49.982;8.240;2022-09-09T06:31:59;17.30;84.50
1526;DHT22;756;49.982;8.240;2022-09-09T06:34:26;17.40;84.10
1526;DHT22;756;49.982;8.240;2022-09-09T06:36:53;17.40;84.20
1526;DHT22;756;49.982;8.240;2022-09-09T06:39:19;17.40;84.60
1526;DHT22;756;49.982;8.240;2022-09-09T06:41:47;17.40;84.50
1526;DHT22;756;49.982;8.240;2022-09-09T06:44:14;17.50;84.20
1526;DHT22;756;49.982;8.240;2022-09-09T06:46:41;17.50;84.10
1526;DHT22;756;49.982;8.240;2022-09-09T06:49:09;17.50;84.30
1526;DHT22;756;49.982;8.240;2022-09-09T06:51:37;17.50;84.30
1526;DHT22;756;49.982;8.240;2022-09-09T06:54:10;17.60;83.90
1526;DHT22;756;49.982;8.240;2022-09-09T06:56:39;17.60;84.00
1526;DHT22;756;49.982;8.240;2022-09-09T06:59:10;17.60;84.00
1526;DHT22;756;49.982;8.240;2022-09-09T07:01:42;17.70;83.50
1526;DHT22;756;49.982;8.240;2022-09-09T07:04:21;17.80;83.20
1526;DHT22;756;49.982;8.240;2022-09-09T07:06:48;17.80;83.10
1526;DHT22;756;49.982;8.240;2022-09-09T07:09:16;17.80;83.10
1526;DHT22;756;49.982;8.240;2022-09-09T07:11:48;17.80;82.90
1526;DHT22;756;49.982;8.240;2022-09-09T07:14:15;17.90;82.60
1526;DHT22;756;49.982;8.240;2022-09-09T07:16:43;17.90;82.60
1526;DHT22;756;49.982;8.240;2022-09-09T07:19:10;17.90;82.80
1526;DHT22;756;49.982;8.240;2022-09-09T07:21:38;18.00;82.30
1526;DHT22;756;49.982;8.240;2022-09-09T07:24:07;18.00;82.70
1526;DHT22;756;49.982;8.240;2022-09-09T07:26:34;18.10;82.30
1526;DHT22;756;49.982;8.240;2022-09-09T07:29:02;18.10;82.40
1526;DHT22;756;49.982;8.240;2022-09-09T07:31:31;18.10;82.20
1526;DHT22;756;49.982;8.240;2022-09-09T07:33:59;18.20;81.60
1526;DHT22;756;49.982;8.240;2022-09-09T07:36:33;18.30;81.80
1526;DHT22;756;49.982;8.240;2022-09-09T07:39:02;18.40;80.60
1526;DHT22;756;49.982;8.240;2022-09-09T07:41:36;18.50;80.60
1526;DHT22;756;49.982;8.240;2022-09-09T07:44:18;18.60;79.70
1526;DHT22;756;49.982;8.240;2022-09-09T07:46:45;18.70;79.00
1526;DHT22;756;49.982;8.240;2022-09-09T07:49:12;18.80;78.80
1526;DHT22;756;49.982;8.240;2022-09-09T07:51:42;18.80;78.90
1526;DHT22;756;49.982;8.240;2022-09-09T07:54:11;18.90;78.90
1526;DHT22;756;49.982;8.240;2022-09-09T07:56:39;19.00;78.20
1526;DHT22;756;49.982;8.240;2022-09-09T07:59:07;19.10;77.30
1526;DHT22;756;49.982;8.240;2022-09-09T08:01:36;19.20;77.10
1526;DHT22;756;49.982;8.240;2022-09-09T08:04:11;19.30;76.30
1526;DHT22;756;49.982;8.240;2022-09-09T08:06:43;19.20;77.10
1526;DHT22;756;49.982;8.240;2022-09-09T08:09:10;19.30;76.80
1526;DHT22;756;49.982;8.240;2022-09-09T08:11:38;19.30;76.60
1526;DHT22;756;49.982;8.240;2022-09-09T08:14:07;19.30;76.60
1526;DHT22;756;49.982;8.240;2022-09-09T08:16:36;19.30;75.80
1526;DHT22;756;49.982;8.240;2022-09-09T08:19:04;19.40;75.50
1526;DHT22;756;49.982;8.240;2022-09-09T08:21:34;19.40;75.60
1526;DHT22;756;49.982;8.240;2022-09-09T08:24:03;19.40;74.90
1526;DHT22;756;49.982;8.240;2022-09-09T08:26:45;19.40;75.10
1526;DHT22;756;49.982;8.240;2022-09-09T08:29:14;19.40;75.40
1526;DHT22;756;49.982;8.240;2022-09-09T08:31:45;19.30;76.00
1526;DHT22;756;49.982;8.240;2022-09-09T08:34:12;19.20;76.30
1526;DHT22;756;49.982;8.240;2022-09-09T08:36:41;19.30;75.20
1526;DHT22;756;49.982;8.240;2022-09-09T08:39:10;19.40;75.60
1526;DHT22;756;49.982;8.240;2022-09-09T08:50:22;19.40;75.00
1526;DHT22;756;49.982;8.240;2022-09-09T08:53:01;19.50;74.00
1526;DHT22;756;49.982;8.240;2022-09-09T08:55:40;19.60;73.40
1526;DHT22;756;49.982;8.240;2022-09-09T08:58:17;19.60;73.60
1526;DHT22;756;49.982;8.240;2022-09-09T09:08:59;20.00;73.50
1526;DHT22;756;49.982;8.240;2022-09-09T09:11:36;20.10;73.60
1526;DHT22;756;49.982;8.240;2022-09-09T09:14:23;20.10;72.20
1526;DHT22;756;49.982;8.240;2022-09-09T09:16:56;20.20;71.90
1526;DHT22;756;49.982;8.240;2022-09-09T09:19:24;20.20;71.10
1526;DHT22;756;49.982;8.240;2022-09-09T09:22:22;20.30;70.70
1526;DHT22;756;49.982;8.240;2022-09-09T09:24:59;20.30;69.90
1526;DHT22;756;49.982;8.240;2022-09-09T09:27:35;20.40;69.20
1526;DHT22;756;49.982;8.240;2022-09-09T09:30:21;20.30;70.60
1526;DHT22;756;49.982;8.240;2022-09-09T09:32:56;20.30;69.20
1526;DHT22;756;49.982;8.240;2022-09-09T09:35:24;20.30;68.80
1526;DHT22;756;49.982;8.240;2022-09-09T09:37:52;20.30;68.90
1526;DHT22;756;49.982;8.240;2022-09-09T09:40:57;20.40;69.00
1526;DHT22;756;49.982;8.240;2022-09-09T09:43:30;20.40;69.90
1526;DHT22;756;49.982;8.240;2022-09-09T09:45:57;20.40;68.90
1526;DHT22;756;49.982;8.240;2022-09-09T09:48:43;20.40;67.70
1526;DHT22;756;49.982;8.240;2022-09-09T09:51:13;20.40;67.70
1526;DHT22;756;49.982;8.240;2022-09-09T09:53:42;20.50;65.70
1526;DHT22;756;49.982;8.240;2022-09-09T09:56:11;20.50;65.90
1526;DHT22;756;49.982;8.240;2022-09-09T10:01:30;20.70;66.40
1526;DHT22;756;49.982;8.240;2022-09-09T10:04:15;20.80;66.20
1526;DHT22;756;49.982;8.240;2022-09-09T10:06:45;20.80;65.40
1526;DHT22;756;49.982;8.240;2022-09-09T10:09:27;20.90;65.40
1526;DHT22;756;49.982;8.240;2022-09-09T10:17:25;21.10;65.70
1526;DHT22;756;49.982;8.240;2022-09-09T10:22:50;21.30;64.20
1526;DHT22;756;49.982;8.240;2022-09-09T10:33:49;21.60;61.30
1526;DHT22;756;49.982;8.240;2022-09-09T10:36:20;21.80;60.50
1526;DHT22;756;49.982;8.240;2022-09-09T10:42:02;22.00;60.80
1526;DHT22;756;49.982;8.240;2022-09-09T10:55:24;23.20;57.90
1526;DHT22;756;49.982;8.240;2022-09-09T10:57:58;24.60;55.00
1526;DHT22;756;49.982;8.240;2022-09-09T11:00:39;25.40;51.70
1526;DHT22;756;49.982;8.240;2022-09-09T11:03:18;25.60;51.80
1526;DHT22;756;49.982;8.240;2022-09-09T11:06:06;25.60;50.90
1526;DHT22;756;49.982;8.240;2022-09-09T11:08:38;25.00;52.80
1526;DHT22;756;49.982;8.240;2022-09-09T11:11:44;24.50;52.80
1526;DHT22;756;49.982;8.240;2022-09-09T11:17:05;23.50;55.10
1526;DHT22;756;49.982;8.240;2022-09-09T11:19:41;23.20;56.30
1526;DHT22;756;49.982;8.240;2022-09-09T11:22:22;23.00;56.20
1526;DHT22;756;49.982;8.240;2022-09-09T11:24:53;22.80;57.90
1526;DHT22;756;49.982;8.240;2022-09-09T11:36:18;22.20;59.40
1526;DHT22;756;49.982;8.240;2022-09-09T11:38:51;22.20;59.50
1526;DHT22;756;49.982;8.240;2022-09-09T11:41:20;22.10;60.50
1526;DHT22;756;49.982;8.240;2022-09-09T11:43:53;22.00;61.10
1526;DHT22;756;49.982;8.240;2022-09-09T11:46:31;22.00;60.50
1526;DHT22;756;49.982;8.240;2022-09-09T11:49:02;22.00;59.20
1526;DHT22;756;49.982;8.240;2022-09-09T11:51:31;21.90;59.40
1526;DHT22;756;49.982;8.240;2022-09-09T11:54:00;21.90;59.40
1526;DHT22;756;49.982;8.240;2022-09-09T11:56:42;21.90;59.10
1526;DHT22;756;49.982;8.240;2022-09-09T11:59:32;21.90;59.40
1526;DHT22;756;49.982;8.240;2022-09-09T12:02:10;21.80;59.90
1526;DHT22;756;49.982;8.240;2022-09-09T12:04:44;21.70;60.10
1526;DHT22;756;49.982;8.240;2022-09-09T12:10:26;21.60;60.50
1526;DHT22;756;49.982;8.240;2022-09-09T12:12:53;21.50;61.80
1526;DHT22;756;49.982;8.240;2022-09-09T12:17:54;21.30;63.30
1526;DHT22;756;49.982;8.240;2022-09-09T12:20:36;21.30;62.90
1526;DHT22;756;49.982;8.240;2022-09-09T12:23:18;21.20;62.80
1526;DHT22;756;49.982;8.240;2022-09-09T12:28:52;21.10;63.60
1526;DHT22;756;49.982;8.240;2022-09-09T12:31:39;21.00;64.10
1526;DHT22;756;49.982;8.240;2022-09-09T12:34:15;20.90;64.90
1526;DHT22;756;49.982;8.240;2022-09-09T12:36:44;20.90;65.90
1526;DHT22;756;49.982;8.240;2022-09-09T12:39:32;20.80;67.30
1526;DHT22;756;49.982;8.240;2022-09-09T12:42:00;20.70;68.60
1526;DHT22;756;49.982;8.240;2022-09-09T12:44:27;20.50;69.40
1526;DHT22;756;49.982;8.240;2022-09-09T12:46:59;20.50;69.40
1526;DHT22;756;49.982;8.240;2022-09-09T12:49:37;20.50;69.90
1526;DHT22;756;49.982;8.240;2022-09-09T12:52:20;20.50;68.90
1526;DHT22;756;49.982;8.240;2022-09-09T12:54:47;20.50;68.50
1526;DHT22;756;49.982;8.240;2022-09-09T12:57:15;20.50;68.20
1526;DHT22;756;49.982;8.240;2022-09-09T12:59:43;20.50;66.20
1526;DHT22;756;49.982;8.240;2022-09-09T13:04:44;20.60;65.50
1526;DHT22;756;49.982;8.240;2022-09-09T13:07:13;20.60;65.40
1526;DHT22;756;49.982;8.240;2022-09-09T13:09:44;20.70;65.10
1526;DHT22;756;49.982;8.240;2022-09-09T13:12:18;20.70;65.80
1526;DHT22;756;49.982;8.240;2022-09-09T13:14:48;20.70;64.20
1526;DHT22;756;49.982;8.240;2022-09-09T13:17:26;20.70;63.90
1526;DHT22;756;49.982;8.240;2022-09-09T13:19:55;20.80;64.10
1526;DHT22;756;49.982;8.240;2022-09-09T13:25:21;20.90;63.10
1526;DHT22;756;49.982;8.240;2022-09-09T13:28:03;20.90;63.90
1526;DHT22;756;49.982;8.240;2022-09-09T13:30:31;20.90;63.40
1526;DHT22;756;49.982;8.240;2022-09-09T13:38:16;20.90;62.60
1526;DHT22;756;49.982;8.240;2022-09-09T13:43:22;20.90;63.50
1526;DHT22;756;49.982;8.240;2022-09-09T13:45:54;20.90;63.10
1526;DHT22;756;49.982;8.240;2022-09-09T13:48:23;20.90;63.90
1526;DHT22;756;49.982;8.240;2022-09-09T13:51:04;20.90;64.30
1526;DHT22;756;49.982;8.240;2022-09-09T13:53:31;20.80;64.30
1526;DHT22;756;49.982;8.240;2022-09-09T13:55:59;20.80;64.70
1526;DHT22;756;49.982;8.240;2022-09-09T13:58:26;20.80;64.90
1526;DHT22;756;49.982;8.240;2022-09-09T14:00:53;20.80;64.90
1526;DHT22;756;49.982;8.240;2022-09-09T14:03:20;20.70;66.10
1526;DHT22;756;49.982;8.240;2022-09-09T14:05:47;20.70;65.70
1526;DHT22;756;49.982;8.240;2022-09-09T14:08:23;20.70;65.40
1526;DHT22;756;49.982;8.240;2022-09-09T14:10:50;20.70;65.70
1526;DHT22;756;49.982;8.240;2022-09-09T14:13:17;20.60;66.80
1526;DHT22;756;49.982;8.240;2022-09-09T14:15:43;20.60;67.30
1526;DHT22;756;49.982;8.240;2022-09-09T14:18:11;20.60;68.00
1526;DHT22;756;49.982;8.240;2022-09-09T14:20:39;20.50;69.00
1526;DHT22;756;49.982;8.240;2022-09-09T14:23:10;20.40;69.40
1526;DHT22;756;49.982;8.240;2022-09-09T14:25:42;20.40;70.30
1526;DHT22;756;49.982;8.240;2022-09-09T14:28:11;20.40;70.90
1526;DHT22;756;49.982;8.240;2022-09-09T14:30:39;20.40;70.40
1526;DHT22;756;49.982;8.240;2022-09-09T14:33:09;20.30;71.70
1526;DHT22;756;49.982;8.240;2022-09-09T14:35:36;20.30;71.70
1526;DHT22;756;49.982;8.240;2022-09-09T14:38:04;20.40;71.30
1526;DHT22;756;49.982;8.240;2022-09-09T14:40:31;20.40;71.20
1526;DHT22;756;49.982;8.240;2022-09-09T14:42:58;20.40;71.10
1526;DHT22;756;49.982;8.240;2022-09-09T14:45:25;20.40;71.30
1526;DHT22;756;49.982;8.240;2022-09-09T14:47:52;20.40;71.50
1526;DHT22;756;49.982;8.240;2022-09-09T14:50:19;20.40;72.00
1526;DHT22;756;49.982;8.240;2022-09-09T14:52:46;20.30;74.40
1526;DHT22;756;49.982;8.240;2022-09-09T14:55:13;20.20;77.10
1526;DHT22;756;49.982;8.240;2022-09-09T14:57:40;20.10;77.90
1526;DHT22;756;49.982;8.240;2022-09-09T15:00:09;20.00;78.60
1526;DHT22;756;49.982;8.240;2022-09-09T15:02:36;20.10;78.30
1526;DHT22;756;49.982;8.240;2022-09-09T15:05:03;20.00;79.90
1526;DHT22;756;49.982;8.240;2022-09-09T15:07:30;19.90;79.60
1526;DHT22;756;49.982;8.240;2022-09-09T15:09:58;19.90;79.70
1526;DHT22;756;49.982;8.240;2022-09-09T15:12:24;19.80;79.20
1526;DHT22;756;49.982;8.240;2022-09-09T15:14:51;19.80;79.30
1526;DHT22;756;49.982;8.240;2022-09-09T15:17:20;19.90;79.30
1526;DHT22;756;49.982;8.240;2022-09-09T15:19:47;19.90;79.70
1526;DHT22;756;49.982;8.240;2022-09-09T15:22:13;20.00;78.10
1526;DHT22;756;49.982;8.240;2022-09-09T15:24:40;20.10;77.00
1526;DHT22;756;49.982;8.240;2022-09-09T15:27:07;20.20;75.60
1526;DHT22;756;49.982;8.240;2022-09-09T15:29:33;20.30;74.30
1526;DHT22;756;49.982;8.240;2022-09-09T15:32:00;20.30;75.50
1526;DHT22;756;49.982;8.240;2022-09-09T15:34:27;20.10;77.00
1526;DHT22;756;49.982;8.240;2022-09-09T15:36:53;20.10;77.40
1526;DHT22;756;49.982;8.240;2022-09-09T15:39:21;20.10;76.90
1526;DHT22;756;49.982;8.240;2022-09-09T15:41:49;20.30;74.80
1526;DHT22;756;49.982;8.240;2022-09-09T15:44:15;20.30;74.90
1526;DHT22;756;49.982;8.240;2022-09-09T15:49:12;20.30;75.30
1526;DHT22;756;49.982;8.240;2022-09-09T15:51:44;20.30;74.70
1526;DHT22;756;49.982;8.240;2022-09-09T15:54:16;20.20;74.90
1526;DHT22;756;49.982;8.240;2022-09-09T15:56:45;20.20;75.30
1526;DHT22;756;49.982;8.240;2022-09-09T15:59:13;20.20;74.10
1526;DHT22;756;49.982;8.240;2022-09-09T16:01:41;20.20;74.20
1526;DHT22;756;49.982;8.240;2022-09-09T16:04:08;20.30;73.20
1526;DHT22;756;49.982;8.240;2022-09-09T16:06:36;20.30;73.60
1526;DHT22;756;49.982;8.240;2022-09-09T16:09:04;20.30;72.40
1526;DHT22;756;49.982;8.240;2022-09-09T16:11:34;20.30;70.60
1526;DHT22;756;49.982;8.240;2022-09-09T16:14:04;20.30;70.40
1526;DHT22;756;49.982;8.240;2022-09-09T16:16:31;20.30;69.80
1526;DHT22;756;49.982;8.240;2022-09-09T16:19:00;20.30;70.10
1526;DHT22;756;49.982;8.240;2022-09-09T16:21:30;20.20;69.80
1526;DHT22;756;49.982;8.240;2022-09-09T16:23:59;20.20;69.50
1526;DHT22;756;49.982;8.240;2022-09-09T16:26:26;20.20;70.90
1526;DHT22;756;49.982;8.240;2022-09-09T16:28:54;20.20;70.30
1526;DHT22;756;49.982;8.240;2022-09-09T16:31:22;20.10;70.40
1526;DHT22;756;49.982;8.240;2022-09-09T16:33:50;20.10;70.60
1526;DHT22;756;49.982;8.240;2022-09-09T16:36:25;20.20;70.60
1526;DHT22;756;49.982;8.240;2022-09-09T16:38:54;20.10;70.60
1526;DHT22;756;49.982;8.240;2022-09-09T16:41:21;20.10;70.50
1526;DHT22;756;49.982;8.240;2022-09-09T16:43:59;20.20;70.30
1526;DHT22;756;49.982;8.240;2022-09-09T16:46:28;20.20;70.30
1526;DHT22;756;49.982;8.240;2022-09-09T16:48:59;20.20;70.60
1526;DHT22;756;49.982;8.240;2022-09-09T16:51:28;20.20;71.20
1526;DHT22;756;49.982;8.240;2022-09-09T16:53:58;20.20;71.60
1526;DHT22;756;49.982;8.240;2022-09-09T16:56:27;20.10;72.00
1526;DHT22;756;49.982;8.240;2022-09-09T16:58:56;20.10;72.30
1526;DHT22;756;49.982;8.240;2022-09-09T17:01:24;20.10;72.30
1526;DHT22;756;49.982;8.240;2022-09-09T17:03:55;20.00;73.00
1526;DHT22;756;49.982;8.240;2022-09-09T17:06:28;20.00;71.90
1526;DHT22;756;49.982;8.240;2022-09-09T17:08:56;20.00;72.40
1526;DHT22;756;49.982;8.240;2022-09-09T17:11:24;19.90;72.10
1526;DHT22;756;49.982;8.240;2022-09-09T17:13:52;19.90;72.50
1526;DHT22;756;49.982;8.240;2022-09-09T17:16:20;19.80;73.60
1526;DHT22;756;49.982;8.240;2022-09-09T17:18:49;19.80;73.80
1526;DHT22;756;49.982;8.240;2022-09-09T17:21:19;19.70;74.60
1526;DHT22;756;49.982;8.240;2022-09-09T17:23:46;19.50;76.00
1526;DHT22;756;49.982;8.240;2022-09-09T17:26:15;19.40;76.10
1526;DHT22;756;49.982;8.240;2022-09-09T17:28:43;19.40;77.10
1526;DHT22;756;49.982;8.240;2022-09-09T17:31:14;19.30;78.10
1526;DHT22;756;49.982;8.240;2022-09-09T17:33:44;19.10;79.30
1526;DHT22;756;49.982;8.240;2022-09-09T17:36:18;19.10;79.90
1526;DHT22;756;49.982;8.240;2022-09-09T17:38:45;19.00;80.70
1526;DHT22;756;49.982;8.240;2022-09-09T17:41:17;18.90;81.20
1526;DHT22;756;49.982;8.240;2022-09-09T17:43:44;18.90;81.70
1526;DHT22;756;49.982;8.240;2022-09-09T17:46:16;18.70;82.50
1526;DHT22;756;49.982;8.240;2022-09-09T17:48:44;18.60;82.90
1526;DHT22;756;49.982;8.240;2022-09-09T17:51:13;18.60;83.10
1526;DHT22;756;49.982;8.240;2022-09-09T17:53:43;18.50;84.10
1526;DHT22;756;49.982;8.240;2022-09-09T17:56:11;18.40;84.90
1526;DHT22;756;49.982;8.240;2022-09-09T17:58:39;18.30;85.20
1526;DHT22;756;49.982;8.240;2022-09-09T18:01:11;18.30;85.10
1526;DHT22;756;49.982;8.240;2022-09-09T18:03:39;18.40;85.10
1526;DHT22;756;49.982;8.240;2022-09-09T18:06:08;18.30;85.10
1526;DHT22;756;49.982;8.240;2022-09-09T18:08:35;18.40;84.90
1526;DHT22;756;49.982;8.240;2022-09-09T18:11:03;18.30;85.00
1526;DHT22;756;49.982;8.240;2022-09-09T18:13:30;18.20;85.00
1526;DHT22;756;49.982;8.240;2022-09-09T18:15:56;18.30;84.00
1526;DHT22;756;49.982;8.240;2022-09-09T18:18:24;18.30;84.00
1526;DHT22;756;49.982;8.240;2022-09-09T18:20:59;18.30;83.50
1526;DHT22;756;49.982;8.240;2022-09-09T18:23:30;18.30;82.70
1526;DHT22;756;49.982;8.240;2022-09-09T18:25:57;18.20;82.20
1526;DHT22;756;49.982;8.240;2022-09-09T18:28:28;18.20;82.00
1526;DHT22;756;49.982;8.240;2022-09-09T18:30:54;18.20;81.50
1526;DHT22;756;49.982;8.240;2022-09-09T18:33:21;18.20;81.30
1526;DHT22;756;49.982;8.240;2022-09-09T18:35:48;18.20;81.10
1526;DHT22;756;49.982;8.240;2022-09-09T18:38:14;18.20;81.10
1526;DHT22;756;49.982;8.240;2022-09-09T18:40:43;18.20;80.90
1526;DHT22;756;49.982;8.240;2022-09-09T18:43:10;18.10;81.10
1526;DHT22;756;49.982;8.240;2022-09-09T18:45:38;18.10;82.10